sensor_id;sensor_type;location;lat;lon;timestamp;P1;durP1;ratioP1;P2;durP2;ratioP2
10430;SDS011;5262;59.958;17.726;2023-05-15T00:01:19;5.63;;;3.07;;
10430;SDS011;5262;59.958;17.726;2023-05-15T00:03:45;3.80;;;2.83;;
10430;SDS011;5262;59.958;17.726;2023-05-15T00:06:11;5.07;;;3.10;;
10430;SDS011;5262;59.958;17.726;2023-05-15T00:08:37;4.83;;;3.17;;
10430;SDS011;5262;59.958;17.726;2023-05-15T00:11:03;4.60;;;2.90;;
10430;SDS011;5262;59.958;17.726;2023-05-15T00:13:29;5.30;;;3.23;;
10430;SDS011;5262;59.958;17.726;2023-05-15T00:15:54;4.63;;;3.30;;
10430;SDS011;5262;59.958;17.726;2023-05-15T00:18:20;4.20;;;3.10;;
10430;SDS011;5262;59.958;17.726;2023-05-15T00:20:46;3.73;;;2.87;;
10430;SDS011;5262;59.958;17.726;2023-05-15T00:23:11;9.00;;;2.90;;
10430;SDS011;5262;59.958;17.726;2023-05-15T00:25:37;5.00;;;2.73;;
10430;SDS011;5262;59.958;17.726;2023-05-15T00:28:03;4.13;;;2.90;;
10430;SDS011;5262;59.958;17.726;2023-05-15T00:30:28;5.70;;;3.10;;
10430;SDS011;5262;59.958;17.726;2023-05-15T00:32:54;3.47;;;3.10;;
10430;SDS011;5262;59.958;17.726;2023-05-15T00:35:19;3.77;;;3.20;;
10430;SDS011;5262;59.958;17.726;2023-05-15T00:37:45;5.23;;;3.23;;
10430;SDS011;5262;59.958;17.726;2023-05-15T00:40:11;4.50;;;3.00;;
10430;SDS011;5262;59.958;17.726;2023-05-15T00:42:42;8.73;;;3.10;;
10430;SDS011;5262;59.958;17.726;2023-05-15T00:45:10;5.00;;;3.50;;
10430;SDS011;5262;59.958;17.726;2023-05-15T00:47:37;4.20;;;3.17;;
10430;SDS011;5262;59.958;17.726;2023-05-15T00:50:04;4.90;;;3.30;;
10430;SDS011;5262;59.958;17.726;2023-05-15T00:52:30;4.33;;;2.93;;
10430;SDS011;5262;59.958;17.726;2023-05-15T00:54:57;4.30;;;3.50;;
10430;SDS011;5262;59.958;17.726;2023-05-15T00:57:22;5.50;;;3.00;;
10430;SDS011;5262;59.958;17.726;2023-05-15T00:59:50;3.90;;;2.83;;
10430;SDS011;5262;59.958;17.726;2023-05-15T01:02:16;3.50;;;3.03;;
10430;SDS011;5262;59.958;17.726;2023-05-15T01:04:45;4.30;;;3.53;;
10430;SDS011;5262;59.958;17.726;2023-05-15T01:07:11;3.47;;;3.00;;
10430;SDS011;5262;59.958;17.726;2023-05-15T01:09:37;3.47;;;3.17;;
10430;SDS011;5262;59.958;17.726;2023-05-15T01:12:06;4.03;;;3.37;;
10430;SDS011;5262;59.958;17.726;2023-05-15T01:14:33;5.43;;;3.07;;
10430;SDS011;5262;59.958;17.726;2023-05-15T01:16:59;5.23;;;3.47;;
10430;SDS011;5262;59.958;17.726;2023-05-15T01:19:24;3.90;;;3.23;;
10430;SDS011;5262;59.958;17.726;2023-05-15T01:22:01;5.37;;;3.53;;
10430;SDS011;5262;59.958;17.726;2023-05-15T01:24:52;5.17;;;3.03;;
10430;SDS011;5262;59.958;17.726;2023-05-15T01:30:11;3.87;;;3.10;;
10430;SDS011;5262;59.958;17.726;2023-05-15T01:36:02;4.77;;;3.17;;
10430;SDS011;5262;59.958;17.726;2023-05-15T01:41:14;4.80;;;3.23;;
10430;SDS011;5262;59.958;17.726;2023-05-15T01:43:46;3.83;;;3.50;;
10430;SDS011;5262;59.958;17.726;2023-05-15T01:46:17;4.73;;;3.07;;
10430;SDS011;5262;59.958;17.726;2023-05-15T01:48:46;5.10;;;3.47;;
10430;SDS011;5262;59.958;17.726;2023-05-15T01:51:13;4.23;;;3.50;;
10430;SDS011;5262;59.958;17.726;2023-05-15T01:53:41;4.77;;;3.40;;
10430;SDS011;5262;59.958;17.726;2023-05-15T01:56:09;3.97;;;3.30;;
10430;SDS011;5262;59.958;17.726;2023-05-15T01:58:36;4.77;;;3.37;;
10430;SDS011;5262;59.958;17.726;2023-05-15T02:01:03;4.93;;;3.30;;
10430;SDS011;5262;59.958;17.726;2023-05-15T02:03:30;5.07;;;3.53;;
10430;SDS011;5262;59.958;17.726;2023-05-15T02:05:58;7.17;;;3.60;;
10430;SDS011;5262;59.958;17.726;2023-05-15T02:08:26;3.37;;;3.10;;
10430;SDS011;5262;59.958;17.726;2023-05-15T02:10:55;3.77;;;3.47;;
10430;SDS011;5262;59.958;17.726;2023-05-15T02:13:24;3.53;;;3.23;;
10430;SDS011;5262;59.958;17.726;2023-05-15T02:15:51;4.27;;;2.97;;
10430;SDS011;5262;59.958;17.726;2023-05-15T02:18:17;6.53;;;3.70;;
10430;SDS011;5262;59.958;17.726;2023-05-15T02:20:43;5.37;;;3.53;;
10430;SDS011;5262;59.958;17.726;2023-05-15T02:23:08;5.27;;;3.87;;
10430;SDS011;5262;59.958;17.726;2023-05-15T02:34:23;4.13;;;3.73;;
10430;SDS011;5262;59.958;17.726;2023-05-15T02:36:53;3.90;;;3.60;;
10430;SDS011;5262;59.958;17.726;2023-05-15T02:39:23;4.13;;;3.60;;
10430;SDS011;5262;59.958;17.726;2023-05-15T02:41:51;8.27;;;3.50;;
10430;SDS011;5262;59.958;17.726;2023-05-15T02:44:18;6.80;;;3.50;;
10430;SDS011;5262;59.958;17.726;2023-05-15T02:46:44;4.00;;;3.37;;
10430;SDS011;5262;59.958;17.726;2023-05-15T02:49:12;7.07;;;3.57;;
10430;SDS011;5262;59.958;17.726;2023-05-15T02:51:39;4.90;;;3.70;;
10430;SDS011;5262;59.958;17.726;2023-05-15T02:54:04;4.20;;;3.30;;
10430;SDS011;5262;59.958;17.726;2023-05-15T02:56:32;5.33;;;3.53;;
10430;SDS011;5262;59.958;17.726;2023-05-15T02:58:58;3.93;;;3.53;;
10430;SDS011;5262;59.958;17.726;2023-05-15T03:01:24;4.13;;;3.67;;
10430;SDS011;5262;59.958;17.726;2023-05-15T03:03:49;4.57;;;3.70;;
10430;SDS011;5262;59.958;17.726;2023-05-15T03:06:15;5.70;;;3.50;;
10430;SDS011;5262;59.958;17.726;2023-05-15T03:08:42;4.30;;;3.90;;
10430;SDS011;5262;59.958;17.726;2023-05-15T03:11:08;5.77;;;3.77;;
10430;SDS011;5262;59.958;17.726;2023-05-15T03:13:34;4.73;;;3.77;;
10430;SDS011;5262;59.958;17.726;2023-05-15T03:16:00;4.70;;;3.77;;
10430;SDS011;5262;59.958;17.726;2023-05-15T03:18:25;4.53;;;3.40;;
10430;SDS011;5262;59.958;17.726;2023-05-15T03:20:51;7.83;;;3.90;;
10430;SDS011;5262;59.958;17.726;2023-05-15T03:23:17;4.30;;;3.87;;
10430;SDS011;5262;59.958;17.726;2023-05-15T03:25:42;6.90;;;4.30;;
10430;SDS011;5262;59.958;17.726;2023-05-15T03:28:08;7.03;;;4.10;;
10430;SDS011;5262;59.958;17.726;2023-05-15T03:30:34;6.00;;;4.00;;
10430;SDS011;5262;59.958;17.726;2023-05-15T03:33:00;6.90;;;4.27;;
10430;SDS011;5262;59.958;17.726;2023-05-15T03:35:28;4.83;;;3.53;;
10430;SDS011;5262;59.958;17.726;2023-05-15T03:37:54;5.47;;;3.97;;
10430;SDS011;5262;59.958;17.726;2023-05-15T03:40:19;5.53;;;4.27;;
10430;SDS011;5262;59.958;17.726;2023-05-15T03:42:45;8.67;;;4.00;;
10430;SDS011;5262;59.958;17.726;2023-05-15T03:45:11;4.63;;;3.53;;
10430;SDS011;5262;59.958;17.726;2023-05-15T03:47:36;4.93;;;3.97;;
10430;SDS011;5262;59.958;17.726;2023-05-15T03:50:02;8.93;;;4.23;;
10430;SDS011;5262;59.958;17.726;2023-05-15T03:52:28;9.67;;;4.10;;
10430;SDS011;5262;59.958;17.726;2023-05-15T03:54:54;4.73;;;4.30;;
10430;SDS011;5262;59.958;17.726;2023-05-15T03:57:19;5.20;;;4.20;;
10430;SDS011;5262;59.958;17.726;2023-05-15T03:59:45;4.67;;;4.00;;
10430;SDS011;5262;59.958;17.726;2023-05-15T04:02:11;5.60;;;4.17;;
10430;SDS011;5262;59.958;17.726;2023-05-15T04:04:36;5.17;;;4.33;;
10430;SDS011;5262;59.958;17.726;2023-05-15T04:07:02;5.00;;;4.53;;
10430;SDS011;5262;59.958;17.726;2023-05-15T04:09:29;5.47;;;4.37;;
10430;SDS011;5262;59.958;17.726;2023-05-15T04:11:54;8.20;;;4.47;;
10430;SDS011;5262;59.958;17.726;2023-05-15T04:14:20;5.57;;;4.53;;
10430;SDS011;5262;59.958;17.726;2023-05-15T04:16:45;7.00;;;4.20;;
10430;SDS011;5262;59.958;17.726;2023-05-15T04:19:11;4.60;;;4.10;;
10430;SDS011;5262;59.958;17.726;2023-05-15T04:21:37;7.10;;;4.07;;
10430;SDS011;5262;59.958;17.726;2023-05-15T04:24:02;6.70;;;4.40;;
10430;SDS011;5262;59.958;17.726;2023-05-15T04:26:28;5.47;;;4.00;;
10430;SDS011;5262;59.958;17.726;2023-05-15T04:28:54;6.37;;;3.93;;
10430;SDS011;5262;59.958;17.726;2023-05-15T04:31:21;6.13;;;3.70;;
10430;SDS011;5262;59.958;17.726;2023-05-15T04:33:47;8.27;;;4.43;;
10430;SDS011;5262;59.958;17.726;2023-05-15T04:36:13;7.53;;;4.23;;
10430;SDS011;5262;59.958;17.726;2023-05-15T04:38:38;5.33;;;3.67;;
10430;SDS011;5262;59.958;17.726;2023-05-15T04:41:04;4.50;;;3.67;;
10430;SDS011;5262;59.958;17.726;2023-05-15T04:43:29;5.60;;;3.93;;
10430;SDS011;5262;59.958;17.726;2023-05-15T04:45:55;4.73;;;3.80;;
10430;SDS011;5262;59.958;17.726;2023-05-15T04:48:21;4.30;;;3.67;;
10430;SDS011;5262;59.958;17.726;2023-05-15T04:50:47;6.53;;;3.40;;
10430;SDS011;5262;59.958;17.726;2023-05-15T04:53:12;7.40;;;3.90;;
10430;SDS011;5262;59.958;17.726;2023-05-15T04:55:38;5.43;;;3.67;;
10430;SDS011;5262;59.958;17.726;2023-05-15T04:58:04;7.97;;;3.77;;
10430;SDS011;5262;59.958;17.726;2023-05-15T05:00:29;4.00;;;3.60;;
10430;SDS011;5262;59.958;17.726;2023-05-15T05:02:55;3.70;;;3.40;;
10430;SDS011;5262;59.958;17.726;2023-05-15T05:05:21;3.50;;;3.17;;
10430;SDS011;5262;59.958;17.726;2023-05-15T05:07:47;7.37;;;4.00;;
10430;SDS011;5262;59.958;17.726;2023-05-15T05:10:15;5.77;;;3.90;;
10430;SDS011;5262;59.958;17.726;2023-05-15T05:12:41;8.60;;;3.53;;
10430;SDS011;5262;59.958;17.726;2023-05-15T05:15:07;4.10;;;3.30;;
10430;SDS011;5262;59.958;17.726;2023-05-15T05:17:33;6.13;;;3.27;;
10430;SDS011;5262;59.958;17.726;2023-05-15T05:19:59;5.47;;;3.33;;
10430;SDS011;5262;59.958;17.726;2023-05-15T05:22:24;7.03;;;3.33;;
10430;SDS011;5262;59.958;17.726;2023-05-15T05:24:50;3.70;;;3.30;;
10430;SDS011;5262;59.958;17.726;2023-05-15T05:27:16;4.73;;;3.20;;
10430;SDS011;5262;59.958;17.726;2023-05-15T05:29:41;3.50;;;3.20;;
10430;SDS011;5262;59.958;17.726;2023-05-15T05:32:07;3.03;;;2.83;;
10430;SDS011;5262;59.958;17.726;2023-05-15T05:34:33;5.90;;;3.17;;
10430;SDS011;5262;59.958;17.726;2023-05-15T05:36:59;8.50;;;3.07;;
10430;SDS011;5262;59.958;17.726;2023-05-15T05:39:24;4.17;;;3.00;;
10430;SDS011;5262;59.958;17.726;2023-05-15T05:41:50;8.53;;;3.20;;
10430;SDS011;5262;59.958;17.726;2023-05-15T05:44:16;13.97;;;3.23;;
10430;SDS011;5262;59.958;17.726;2023-05-15T05:46:41;6.33;;;2.77;;
10430;SDS011;5262;59.958;17.726;2023-05-15T05:49:07;11.17;;;3.20;;
10430;SDS011;5262;59.958;17.726;2023-05-15T05:51:36;12.03;;;4.33;;
10430;SDS011;5262;59.958;17.726;2023-05-15T05:54:02;9.63;;;3.57;;
10430;SDS011;5262;59.958;17.726;2023-05-15T05:56:28;10.03;;;3.53;;
10430;SDS011;5262;59.958;17.726;2023-05-15T05:58:53;7.27;;;3.40;;
10430;SDS011;5262;59.958;17.726;2023-05-15T06:01:20;11.30;;;3.30;;
10430;SDS011;5262;59.958;17.726;2023-05-15T06:03:46;7.27;;;3.57;;
10430;SDS011;5262;59.958;17.726;2023-05-15T06:06:12;10.90;;;3.70;;
10430;SDS011;5262;59.958;17.726;2023-05-15T06:08:37;9.97;;;3.40;;
10430;SDS011;5262;59.958;17.726;2023-05-15T06:11:03;10.47;;;3.17;;
10430;SDS011;5262;59.958;17.726;2023-05-15T06:13:29;6.73;;;3.33;;
10430;SDS011;5262;59.958;17.726;2023-05-15T06:15:55;16.93;;;3.50;;
10430;SDS011;5262;59.958;17.726;2023-05-15T06:18:20;6.83;;;3.30;;
10430;SDS011;5262;59.958;17.726;2023-05-15T06:20:46;7.90;;;3.23;;
10430;SDS011;5262;59.958;17.726;2023-05-15T06:23:11;5.53;;;2.97;;
10430;SDS011;5262;59.958;17.726;2023-05-15T06:25:37;7.50;;;3.43;;
10430;SDS011;5262;59.958;17.726;2023-05-15T06:28:03;6.83;;;3.30;;
10430;SDS011;5262;59.958;17.726;2023-05-15T06:30:29;8.67;;;2.90;;
10430;SDS011;5262;59.958;17.726;2023-05-15T06:32:55;6.10;;;3.40;;
10430;SDS011;5262;59.958;17.726;2023-05-15T06:35:20;7.53;;;3.50;;
10430;SDS011;5262;59.958;17.726;2023-05-15T06:37:48;7.90;;;2.70;;
10430;SDS011;5262;59.958;17.726;2023-05-15T06:40:14;9.97;;;3.03;;
10430;SDS011;5262;59.958;17.726;2023-05-15T06:42:40;5.97;;;3.10;;
10430;SDS011;5262;59.958;17.726;2023-05-15T06:45:06;5.13;;;3.43;;
10430;SDS011;5262;59.958;17.726;2023-05-15T06:47:32;5.07;;;3.10;;
10430;SDS011;5262;59.958;17.726;2023-05-15T06:49:58;4.37;;;3.17;;
10430;SDS011;5262;59.958;17.726;2023-05-15T06:52:24;7.20;;;3.10;;
10430;SDS011;5262;59.958;17.726;2023-05-15T06:54:49;5.50;;;3.40;;
10430;SDS011;5262;59.958;17.726;2023-05-15T06:57:16;4.33;;;3.00;;
10430;SDS011;5262;59.958;17.726;2023-05-15T06:59:42;7.50;;;3.23;;
10430;SDS011;5262;59.958;17.726;2023-05-15T07:02:08;3.97;;;3.10;;
10430;SDS011;5262;59.958;17.726;2023-05-15T07:04:33;8.05;;;3.20;;
10430;SDS011;5262;59.958;17.726;2023-05-15T07:06:59;5.13;;;2.85;;
10430;SDS011;5262;59.958;17.726;2023-05-15T07:09:25;6.43;;;3.00;;
10430;SDS011;5262;59.958;17.726;2023-05-15T07:11:51;5.38;;;2.65;;
10430;SDS011;5262;59.958;17.726;2023-05-15T07:14:17;4.80;;;2.90;;
10430;SDS011;5262;59.958;17.726;2023-05-15T07:16:42;5.18;;;3.13;;
10430;SDS011;5262;59.958;17.726;2023-05-15T07:19:09;5.57;;;3.10;;
10430;SDS011;5262;59.958;17.726;2023-05-15T07:21:35;7.00;;;2.95;;
10430;SDS011;5262;59.958;17.726;2023-05-15T07:24:00;5.47;;;3.25;;
10430;SDS011;5262;59.958;17.726;2023-05-15T07:26:26;4.03;;;3.33;;
10430;SDS011;5262;59.958;17.726;2023-05-15T07:28:52;5.95;;;3.22;;
10430;SDS011;5262;59.958;17.726;2023-05-15T07:31:17;8.05;;;3.47;;
10430;SDS011;5262;59.958;17.726;2023-05-15T07:33:44;7.70;;;3.63;;
10430;SDS011;5262;59.958;17.726;2023-05-15T07:36:10;4.75;;;3.20;;
10430;SDS011;5262;59.958;17.726;2023-05-15T07:38:35;6.97;;;3.13;;
10430;SDS011;5262;59.958;17.726;2023-05-15T07:41:01;7.47;;;3.10;;
10430;SDS011;5262;59.958;17.726;2023-05-15T07:43:27;7.03;;;3.30;;
10430;SDS011;5262;59.958;17.726;2023-05-15T07:45:52;8.05;;;3.58;;
10430;SDS011;5262;59.958;17.726;2023-05-15T07:48:18;6.13;;;3.05;;
10430;SDS011;5262;59.958;17.726;2023-05-15T07:50:45;5.43;;;3.25;;
10430;SDS011;5262;59.958;17.726;2023-05-15T07:53:11;9.88;;;3.55;;
10430;SDS011;5262;59.958;17.726;2023-05-15T07:55:37;5.28;;;2.72;;
10430;SDS011;5262;59.958;17.726;2023-05-15T07:58:05;6.28;;;3.30;;
10430;SDS011;5262;59.958;17.726;2023-05-15T08:00:32;4.85;;;2.88;;
10430;SDS011;5262;59.958;17.726;2023-05-15T08:02:58;6.15;;;3.33;;
10430;SDS011;5262;59.958;17.726;2023-05-15T08:05:23;9.20;;;3.45;;
10430;SDS011;5262;59.958;17.726;2023-05-15T08:07:49;8.38;;;3.38;;
10430;SDS011;5262;59.958;17.726;2023-05-15T08:10:15;8.68;;;2.97;;
10430;SDS011;5262;59.958;17.726;2023-05-15T08:12:41;9.30;;;3.22;;
10430;SDS011;5262;59.958;17.726;2023-05-15T08:15:10;6.72;;;3.47;;
10430;SDS011;5262;59.958;17.726;2023-05-15T08:17:36;9.27;;;3.53;;
10430;SDS011;5262;59.958;17.726;2023-05-15T08:20:02;5.75;;;2.97;;
10430;SDS011;5262;59.958;17.726;2023-05-15T08:22:29;8.98;;;3.50;;
10430;SDS011;5262;59.958;17.726;2023-05-15T08:24:55;12.82;;;3.83;;
10430;SDS011;5262;59.958;17.726;2023-05-15T08:27:20;7.47;;;3.00;;
10430;SDS011;5262;59.958;17.726;2023-05-15T08:29:46;8.48;;;3.35;;
10430;SDS011;5262;59.958;17.726;2023-05-15T08:32:12;10.50;;;3.65;;
10430;SDS011;5262;59.958;17.726;2023-05-15T08:34:37;9.07;;;3.42;;
10430;SDS011;5262;59.958;17.726;2023-05-15T08:37:03;9.93;;;4.00;;
10430;SDS011;5262;59.958;17.726;2023-05-15T08:39:30;6.47;;;3.08;;
10430;SDS011;5262;59.958;17.726;2023-05-15T08:44:29;7.15;;;3.35;;
10430;SDS011;5262;59.958;17.726;2023-05-15T08:46:56;10.43;;;3.75;;
10430;SDS011;5262;59.958;17.726;2023-05-15T08:52:00;8.98;;;3.28;;
10430;SDS011;5262;59.958;17.726;2023-05-15T08:54:26;9.27;;;3.70;;
10430;SDS011;5262;59.958;17.726;2023-05-15T08:56:52;6.65;;;2.83;;
10430;SDS011;5262;59.958;17.726;2023-05-15T08:59:18;6.28;;;3.30;;
10430;SDS011;5262;59.958;17.726;2023-05-15T09:01:44;8.35;;;3.17;;
10430;SDS011;5262;59.958;17.726;2023-05-15T09:04:11;6.25;;;3.10;;
10430;SDS011;5262;59.958;17.726;2023-05-15T09:06:37;5.45;;;2.95;;
10430;SDS011;5262;59.958;17.726;2023-05-15T09:09:03;4.90;;;3.35;;
10430;SDS011;5262;59.958;17.726;2023-05-15T09:11:29;4.30;;;2.90;;
10430;SDS011;5262;59.958;17.726;2023-05-15T09:13:59;6.82;;;2.90;;
10430;SDS011;5262;59.958;17.726;2023-05-15T09:16:25;5.45;;;3.15;;
10430;SDS011;5262;59.958;17.726;2023-05-15T09:18:51;4.88;;;2.92;;
10430;SDS011;5262;59.958;17.726;2023-05-15T09:23:47;7.95;;;2.60;;
10430;SDS011;5262;59.958;17.726;2023-05-15T09:26:13;6.30;;;2.60;;
10430;SDS011;5262;59.958;17.726;2023-05-15T09:28:38;5.50;;;2.78;;
10430;SDS011;5262;59.958;17.726;2023-05-15T09:31:04;4.38;;;2.55;;
10430;SDS011;5262;59.958;17.726;2023-05-15T09:33:35;7.75;;;2.90;;
10430;SDS011;5262;59.958;17.726;2023-05-15T09:36:02;5.55;;;3.13;;
10430;SDS011;5262;59.958;17.726;2023-05-15T09:38:31;4.25;;;3.00;;
10430;SDS011;5262;59.958;17.726;2023-05-15T09:41:04;3.75;;;2.70;;
10430;SDS011;5262;59.958;17.726;2023-05-15T09:43:35;4.43;;;2.28;;
10430;SDS011;5262;59.958;17.726;2023-05-15T09:46:02;5.30;;;2.80;;
10430;SDS011;5262;59.958;17.726;2023-05-15T09:48:28;6.43;;;2.90;;
10430;SDS011;5262;59.958;17.726;2023-05-15T09:50:55;4.40;;;2.88;;
10430;SDS011;5262;59.958;17.726;2023-05-15T09:53:21;7.32;;;3.17;;
10430;SDS011;5262;59.958;17.726;2023-05-15T09:55:47;7.47;;;3.08;;
10430;SDS011;5262;59.958;17.726;2023-05-15T09:58:14;7.75;;;2.85;;
10430;SDS011;5262;59.958;17.726;2023-05-15T10:00:41;7.30;;;3.05;;
10430;SDS011;5262;59.958;17.726;2023-05-15T10:03:08;7.07;;;3.00;;
10430;SDS011;5262;59.958;17.726;2023-05-15T10:05:35;5.38;;;2.97;;
10430;SDS011;5262;59.958;17.726;2023-05-15T10:08:01;4.65;;;2.85;;
10430;SDS011;5262;59.958;17.726;2023-05-15T10:10:27;4.07;;;2.70;;
10430;SDS011;5262;59.958;17.726;2023-05-15T10:12:54;8.60;;;3.13;;
10430;SDS011;5262;59.958;17.726;2023-05-15T10:15:27;7.43;;;2.78;;
10430;SDS011;5262;59.958;17.726;2023-05-15T10:17:53;3.33;;;2.92;;
10430;SDS011;5262;59.958;17.726;2023-05-15T10:20:20;4.82;;;2.60;;
10430;SDS011;5262;59.958;17.726;2023-05-15T10:22:51;5.40;;;2.92;;
10430;SDS011;5262;59.958;17.726;2023-05-15T10:28:12;3.70;;;2.80;;
10430;SDS011;5262;59.958;17.726;2023-05-15T10:30:39;7.13;;;2.90;;
10430;SDS011;5262;59.958;17.726;2023-05-15T10:33:07;4.63;;;2.97;;
10430;SDS011;5262;59.958;17.726;2023-05-15T10:35:33;11.40;;;3.65;;
10430;SDS011;5262;59.958;17.726;2023-05-15T10:38:00;6.18;;;2.92;;
10430;SDS011;5262;59.958;17.726;2023-05-15T10:40:28;5.88;;;2.95;;
10430;SDS011;5262;59.958;17.726;2023-05-15T10:42:55;7.85;;;2.90;;
10430;SDS011;5262;59.958;17.726;2023-05-15T10:45:23;5.82;;;2.70;;
10430;SDS011;5262;59.958;17.726;2023-05-15T10:47:49;6.15;;;3.35;;
10430;SDS011;5262;59.958;17.726;2023-05-15T10:50:15;9.07;;;3.10;;
10430;SDS011;5262;59.958;17.726;2023-05-15T10:52:42;4.82;;;3.00;;
10430;SDS011;5262;59.958;17.726;2023-05-15T10:55:08;7.90;;;3.00;;
10430;SDS011;5262;59.958;17.726;2023-05-15T10:57:38;3.83;;;2.30;;
10430;SDS011;5262;59.958;17.726;2023-05-15T11:00:22;7.88;;;2.63;;
10430;SDS011;5262;59.958;17.726;2023-05-15T11:02:57;3.42;;;2.88;;
10430;SDS011;5262;59.958;17.726;2023-05-15T11:05:25;6.78;;;2.70;;
10430;SDS011;5262;59.958;17.726;2023-05-15T11:10:49;5.93;;;3.10;;
10430;SDS011;5262;59.958;17.726;2023-05-15T11:13:15;4.88;;;3.08;;
10430;SDS011;5262;59.958;17.726;2023-05-15T11:15:42;7.10;;;3.05;;
10430;SDS011;5262;59.958;17.726;2023-05-15T11:18:08;8.68;;;3.13;;
10430;SDS011;5262;59.958;17.726;2023-05-15T11:20:41;5.63;;;3.25;;
10430;SDS011;5262;59.958;17.726;2023-05-15T11:23:26;8.48;;;3.30;;
10430;SDS011;5262;59.958;17.726;2023-05-15T11:25:53;8.68;;;3.20;;
10430;SDS011;5262;59.958;17.726;2023-05-15T11:28:21;3.47;;;2.83;;
10430;SDS011;5262;59.958;17.726;2023-05-15T11:30:51;6.53;;;3.25;;
10430;SDS011;5262;59.958;17.726;2023-05-15T11:33:23;4.18;;;2.92;;
10430;SDS011;5262;59.958;17.726;2023-05-15T11:35:56;7.90;;;2.90;;
10430;SDS011;5262;59.958;17.726;2023-05-15T11:38:22;8.18;;;3.15;;
10430;SDS011;5262;59.958;17.726;2023-05-15T11:40:50;6.32;;;2.83;;
10430;SDS011;5262;59.958;17.726;2023-05-15T11:45:50;4.38;;;2.60;;
10430;SDS011;5262;59.958;17.726;2023-05-15T11:48:19;6.13;;;3.08;;
10430;SDS011;5262;59.958;17.726;2023-05-15T11:50:47;6.43;;;2.97;;
10430;SDS011;5262;59.958;17.726;2023-05-15T11:53:13;4.22;;;2.42;;
10430;SDS011;5262;59.958;17.726;2023-05-15T11:55:40;3.88;;;2.72;;
10430;SDS011;5262;59.958;17.726;2023-05-15T11:58:25;5.65;;;2.72;;
10430;SDS011;5262;59.958;17.726;2023-05-15T12:00:52;6.22;;;2.95;;
10430;SDS011;5262;59.958;17.726;2023-05-15T12:03:25;5.63;;;3.03;;
10430;SDS011;5262;59.958;17.726;2023-05-15T12:05:52;7.28;;;2.45;;
10430;SDS011;5262;59.958;17.726;2023-05-15T12:08:18;7.15;;;2.42;;
10430;SDS011;5262;59.958;17.726;2023-05-15T12:10:45;4.03;;;2.80;;
10430;SDS011;5262;59.958;17.726;2023-05-15T12:13:12;9.10;;;2.50;;
10430;SDS011;5262;59.958;17.726;2023-05-15T12:15:42;6.03;;;3.13;;
10430;SDS011;5262;59.958;17.726;2023-05-15T12:18:09;7.38;;;2.90;;
10430;SDS011;5262;59.958;17.726;2023-05-15T12:20:36;5.90;;;2.63;;
10430;SDS011;5262;59.958;17.726;2023-05-15T12:23:03;3.00;;;2.63;;
10430;SDS011;5262;59.958;17.726;2023-05-15T12:25:30;7.00;;;2.78;;
10430;SDS011;5262;59.958;17.726;2023-05-15T12:27:57;4.75;;;2.55;;
10430;SDS011;5262;59.958;17.726;2023-05-15T12:30:24;6.45;;;2.72;;
10430;SDS011;5262;59.958;17.726;2023-05-15T12:32:50;7.53;;;3.08;;
10430;SDS011;5262;59.958;17.726;2023-05-15T12:35:16;8.07;;;2.47;;
10430;SDS011;5262;59.958;17.726;2023-05-15T12:37:42;8.32;;;2.60;;
10430;SDS011;5262;59.958;17.726;2023-05-15T12:40:09;6.15;;;2.53;;
10430;SDS011;5262;59.958;17.726;2023-05-15T12:42:42;4.80;;;2.47;;
10430;SDS011;5262;59.958;17.726;2023-05-15T12:45:13;3.30;;;2.53;;
10430;SDS011;5262;59.958;17.726;2023-05-15T12:47:39;4.13;;;2.50;;
10430;SDS011;5262;59.958;17.726;2023-05-15T12:55:21;4.40;;;2.27;;
10430;SDS011;5262;59.958;17.726;2023-05-15T12:58:25;6.75;;;2.75;;
10430;SDS011;5262;59.958;17.726;2023-05-15T13:00:43;3.90;;;2.30;;
10430;SDS011;5262;59.958;17.726;2023-05-15T13:03:11;4.28;;;2.22;;
10430;SDS011;5262;59.958;17.726;2023-05-15T13:05:38;11.30;;;2.37;;
10430;SDS011;5262;59.958;17.726;2023-05-15T13:08:05;5.53;;;2.50;;
10430;SDS011;5262;59.958;17.726;2023-05-15T13:10:32;5.07;;;2.37;;
10430;SDS011;5262;59.958;17.726;2023-05-15T13:12:59;5.00;;;2.77;;
10430;SDS011;5262;59.958;17.726;2023-05-15T13:20:30;6.07;;;2.50;;
10430;SDS011;5262;59.958;17.726;2023-05-15T13:22:58;5.13;;;2.63;;
10430;SDS011;5262;59.958;17.726;2023-05-15T13:25:25;4.20;;;2.60;;
10430;SDS011;5262;59.958;17.726;2023-05-15T13:27:50;7.07;;;2.50;;
10430;SDS011;5262;59.958;17.726;2023-05-15T13:30:16;6.27;;;2.40;;
10430;SDS011;5262;59.958;17.726;2023-05-15T13:32:43;4.83;;;2.13;;
10430;SDS011;5262;59.958;17.726;2023-05-15T13:35:09;5.87;;;2.33;;
10430;SDS011;5262;59.958;17.726;2023-05-15T13:37:35;4.60;;;2.40;;
10430;SDS011;5262;59.958;17.726;2023-05-15T13:40:02;4.70;;;2.40;;
10430;SDS011;5262;59.958;17.726;2023-05-15T13:42:31;4.57;;;2.37;;
10430;SDS011;5262;59.958;17.726;2023-05-15T13:44:56;3.57;;;2.33;;
10430;SDS011;5262;59.958;17.726;2023-05-15T13:47:22;4.87;;;2.47;;
10430;SDS011;5262;59.958;17.726;2023-05-15T13:49:47;6.27;;;2.57;;
10430;SDS011;5262;59.958;17.726;2023-05-15T13:52:13;5.30;;;2.70;;
10430;SDS011;5262;59.958;17.726;2023-05-15T13:54:39;6.23;;;2.60;;
10430;SDS011;5262;59.958;17.726;2023-05-15T13:57:05;4.30;;;2.30;;
10430;SDS011;5262;59.958;17.726;2023-05-15T13:59:30;11.80;;;2.20;;
10430;SDS011;5262;59.958;17.726;2023-05-15T14:01:56;3.77;;;2.63;;
10430;SDS011;5262;59.958;17.726;2023-05-15T14:04:21;7.03;;;2.70;;
10430;SDS011;5262;59.958;17.726;2023-05-15T14:06:47;8.27;;;2.63;;
10430;SDS011;5262;59.958;17.726;2023-05-15T14:09:13;7.60;;;2.93;;
10430;SDS011;5262;59.958;17.726;2023-05-15T14:11:38;5.90;;;2.63;;
10430;SDS011;5262;59.958;17.726;2023-05-15T14:14:04;8.97;;;2.43;;
10430;SDS011;5262;59.958;17.726;2023-05-15T14:16:29;8.83;;;2.50;;
10430;SDS011;5262;59.958;17.726;2023-05-15T14:18:55;7.67;;;2.17;;
10430;SDS011;5262;59.958;17.726;2023-05-15T14:21:22;5.07;;;2.37;;
10430;SDS011;5262;59.958;17.726;2023-05-15T14:23:47;5.90;;;2.27;;
10430;SDS011;5262;59.958;17.726;2023-05-15T14:26:13;6.70;;;2.10;;
10430;SDS011;5262;59.958;17.726;2023-05-15T14:28:38;5.73;;;2.60;;
10430;SDS011;5262;59.958;17.726;2023-05-15T14:31:04;4.03;;;2.30;;
10430;SDS011;5262;59.958;17.726;2023-05-15T14:33:30;7.87;;;2.70;;
10430;SDS011;5262;59.958;17.726;2023-05-15T14:35:55;6.33;;;2.67;;
10430;SDS011;5262;59.958;17.726;2023-05-15T14:38:21;4.77;;;2.60;;
10430;SDS011;5262;59.958;17.726;2023-05-15T14:40:46;5.67;;;2.60;;
10430;SDS011;5262;59.958;17.726;2023-05-15T14:43:12;6.93;;;3.00;;
10430;SDS011;5262;59.958;17.726;2023-05-15T14:45:38;3.67;;;2.37;;
10430;SDS011;5262;59.958;17.726;2023-05-15T14:48:03;5.90;;;2.90;;
10430;SDS011;5262;59.958;17.726;2023-05-15T14:50:29;4.17;;;2.53;;
10430;SDS011;5262;59.958;17.726;2023-05-15T14:52:55;6.73;;;2.90;;
10430;SDS011;5262;59.958;17.726;2023-05-15T14:55:20;3.23;;;2.30;;
10430;SDS011;5262;59.958;17.726;2023-05-15T14:57:46;5.73;;;2.50;;
10430;SDS011;5262;59.958;17.726;2023-05-15T15:00:15;5.93;;;2.50;;
10430;SDS011;5262;59.958;17.726;2023-05-15T15:02:42;3.80;;;2.40;;
10430;SDS011;5262;59.958;17.726;2023-05-15T15:05:08;5.80;;;2.33;;
10430;SDS011;5262;59.958;17.726;2023-05-15T15:10:21;5.47;;;2.63;;
10430;SDS011;5262;59.958;17.726;2023-05-15T15:12:47;6.37;;;2.80;;
10430;SDS011;5262;59.958;17.726;2023-05-15T15:15:14;7.20;;;3.07;;
10430;SDS011;5262;59.958;17.726;2023-05-15T15:17:40;3.73;;;2.80;;
10430;SDS011;5262;59.958;17.726;2023-05-15T15:20:05;4.50;;;2.80;;
10430;SDS011;5262;59.958;17.726;2023-05-15T15:22:32;5.63;;;2.60;;
10430;SDS011;5262;59.958;17.726;2023-05-15T15:24:57;3.17;;;2.40;;
10430;SDS011;5262;59.958;17.726;2023-05-15T15:27:23;4.30;;;2.47;;
10430;SDS011;5262;59.958;17.726;2023-05-15T15:29:48;6.23;;;2.60;;
10430;SDS011;5262;59.958;17.726;2023-05-15T15:32:14;4.00;;;2.57;;